Time;durP1;ratioP1;P1;durP2;ratioP2;P2;SDS_P1;SDS_P2;PMS_P1;PMS_P2;Temp;Humidity;BMP_temperature;BMP_pressure;BME280_temperature;BME280_humidity;BME280_pressure;Samples;Min_cycle;Max_cycle;Signal;HPM_P1;HPM_P2
2021/08/08 07:32:02;;;;;;;9.13;2.38;;;17.10;99.90;;;18.55;70.98;99747.03;6286917;22;20077;-86
2021/08/08 07:34:28;;;;;;;9.23;2.80;;;17.20;99.90;;;18.35;71.46;99752.63;6254794;23;20027;-86
2021/08/08 07:36:56;;;;;;;8.55;2.08;;;17.30;99.90;;;18.35;70.96;99750.59;6227508;23;20502;-87
2021/08/08 07:39:22;;;;;;;10.70;2.25;;;17.30;99.90;;;18.35;71.65;99756.25;6232383;23;20005;-89
2021/08/08 07:41:49;;;;;;;6.45;1.92;;;17.20;99.90;;;18.20;71.27;99752.13;6257663;23;20019;-87
2021/08/08 07:44:20;;;;;;;7.88;2.67;;;17.20;99.90;;;18.30;72.39;99767.28;6241212;23;20011;-87
2021/08/08 07:46:54;;;;;;;10.02;2.95;;;17.20;99.90;;;18.29;71.94;99755.16;6235077;23;20004;-91
2021/08/08 07:49:23;;;;;;;10.18;2.80;;;17.30;99.90;;;18.46;70.72;99761.72;6227341;23;20007;-90
2021/08/08 07:51:54;;;;;;;10.05;2.30;;;17.40;99.90;;;18.86;69.83;99766.19;6227118;23;20008;-91
2021/08/08 07:54:27;;;;;;;13.00;2.35;;;17.50;99.90;;;18.76;69.44;99767.19;6225484;23;20103;-88
2021/08/08 07:57:16;;;;;;;7.00;2.35;;;17.50;99.90;;;18.68;69.87;99777.06;6226160;23;20398;-88
2021/08/08 07:59:44;;;;;;;13.75;2.63;;;17.40;99.90;;;18.10;70.46;99781.34;6228959;23;20012;-88
2021/08/08 08:02:19;;;;;;;9.10;2.53;;;17.30;99.90;;;18.29;70.85;99774.16;6224784;23;20062;-89
2021/08/08 08:04:55;;;;;;;9.25;2.40;;;17.20;99.90;;;18.25;72.06;99782.69;6224981;23;20012;-88
2021/08/08 08:07:24;;;;;;;8.35;2.38;;;17.20;99.90;;;18.56;70.14;99786.19;6223212;23;20088;-88
2021/08/08 08:09:56;;;;;;;12.15;2.78;;;17.30;99.90;;;18.75;69.10;99784.63;6225019;23;20066;-89
2021/08/08 08:12:29;;;;;;;5.78;2.20;;;17.60;99.90;;;19.29;68.02;99785.09;6222739;23;20004;-90
2021/08/08 08:14:56;;;;;;;8.75;2.42;;;17.90;99.90;;;19.69;66.95;99788.66;6251062;23;20000;-89
2021/08/08 08:17:31;;;;;;;10.98;2.70;;;18.20;99.90;;;19.82;65.93;99781.84;6223753;23;20514;-89
2021/08/08 08:23:06;;;;;;;7.05;2.20;;;18.60;99.90;;;19.92;65.20;99792.13;6185210;23;20004;-88
2021/08/08 08:25:49;;;;;;;9.07;2.53;;;18.70;99.90;;;19.74;63.75;99788.94;6224582;23;20004;-88
2021/08/08 08:28:39;;;;;;;;;;;;;;;;;;;;;
2021/08/08 08:31:26;;;;;;;7.40;2.03;;;18.80;99.90;;;20.29;64.55;99799.31;6250768;23;20020;-86
2021/08/08 08:33:52;;;;;;;7.15;2.30;;;19.00;99.90;;;20.30;63.46;99792.41;6265416;22;20011;-87
2021/08/08 08:36:23;;;;;;;5.78;2.20;;;19.00;99.90;;;20.22;62.63;99787.34;6280917;22;20042;-85
2021/08/08 08:38:51;;;;;;;5.53;1.95;;;19.00;99.90;;;20.06;63.91;99804.38;6279760;22;20012;-88
2021/08/08 08:41:28;;;;;;;10.27;2.60;;;18.90;99.90;;;19.54;64.17;99808.03;6279395;22;20034;-89
2021/08/08 08:44:01;;;;;;;5.25;2.03;;;18.70;99.90;;;19.64;65.07;99806.97;6279925;22;20030;-88
2021/08/08 08:46:31;;;;;;;10.80;2.63;;;18.60;99.90;;;19.78;62.90;99814.34;6278889;22;20106;-87
2021/08/08 08:48:58;;;;;;;7.97;2.70;;;18.60;99.90;;;19.76;63.58;99814.78;6279495;22;20008;-91
2021/08/08 08:51:41;;;;;;;8.25;2.20;;;18.70;99.90;;;20.36;61.00;99821.03;6304775;22;20075;-87
2021/08/08 08:54:10;;;;;;;5.60;2.20;;;19.00;99.90;;;20.40;60.60;99827.41;6278864;22;20016;-90
2021/08/08 08:56:38;;;;;;;9.95;2.70;;;19.30;99.90;;;19.89;62.61;99818.53;6279480;22;20011;-87
2021/08/08 08:59:09;;;;;;;13.52;2.60;;;19.10;99.90;;;19.91;61.99;99830.19;6280180;22;20007;-89
2021/08/08 09:01:41;;;;;;;7.07;2.55;;;19.00;99.90;;;20.32;61.95;99818.31;6279597;22;20000;-90
2021/08/08 09:04:08;;;;;;;7.18;2.15;;;19.20;99.90;;;20.56;59.17;99830.22;6279038;22;20031;-86
2021/08/08 09:06:33;;;;;;;6.50;2.00;;;19.40;99.90;;;20.93;59.34;99825.97;6279702;22;20010;-88
2021/08/08 09:09:02;;;;;;;6.18;2.00;;;19.60;99.90;;;20.56;59.03;99830.22;6306041;22;20015;-89
2021/08/08 09:11:45;;;;;;;8.60;2.70;;;19.50;99.90;;;20.70;59.40;99844.03;6305807;22;20106;-88
2021/08/08 09:14:15;;;;;;;9.35;2.58;;;19.50;99.90;;;20.58;59.18;99839.06;6279065;22;20007;-88
2021/08/08 09:16:51;;;;;;;9.02;2.40;;;19.50;99.90;;;20.20;58.91;99840.84;6278570;22;20029;-90
2021/08/08 09:19:32;;;;;;;8.88;1.83;;;19.40;99.90;;;20.51;59.74;99842.13;6278632;22;20030;-87
2021/08/08 09:21:59;;;;;;;7.53;2.38;;;19.40;99.90;;;20.29;58.30;99847.53;6279825;22;20004;-88
2021/08/08 09:24:36;;;;;;;6.85;2.33;;;19.30;99.90;;;20.39;58.89;99845.66;6280963;22;20008;-88
2021/08/08 09:27:13;;;;;;;7.60;2.42;;;19.40;99.90;;;20.39;59.20;99846.47;6281936;22;20049;-86
2021/08/08 09:29:48;;;;;;;8.95;2.08;;;19.40;99.90;;;21.17;57.04;99844.38;6280020;22;20007;-87
2021/08/08 09:32:17;;;;;;;8.97;2.27;;;19.80;99.90;;;21.84;53.82;99838.69;6280721;22;20008;-86
2021/08/08 09:34:51;;;;;;;8.00;2.53;;;20.60;99.90;;;22.31;52.11;99844.50;6280702;22;20292;-85
2021/08/08 09:37:23;;;;;;;9.40;2.08;;;20.90;99.90;;;22.23;52.95;99845.97;6279536;22;20035;-85
2021/08/08 09:39:52;;;;;;;9.00;2.33;;;21.10;99.90;;;22.32;52.52;99846.88;6282034;22;20000;-87
2021/08/08 09:42:25;;;;;;;8.10;2.50;;;21.20;99.90;;;22.16;52.28;99855.53;6280641;22;20034;-87
2021/08/08 09:45:01;;;;;;;7.68;1.83;;;21.20;99.90;;;22.05;52.96;99855.09;6306314;22;20546;-87
2021/08/08 09:47:53;;;;;;;;;;;21.00;99.90;;;21.62;54.47;99852.75;6282802;22;20014;-87
2021/08/08 09:50:26;;;;;;;8.07;2.25;;;20.70;99.90;;;21.66;54.83;99861.19;6284970;22;20297;-86
2021/08/08 09:53:00;;;;;;;7.80;2.38;;;20.70;99.90;;;22.46;53.15;99852.09;6312432;22;20004;-87
2021/08/08 09:55:35;;;;;;;9.65;2.08;;;21.00;99.90;;;23.72;51.20;99862.19;6285746;22;20014;-87
2021/08/08 09:58:20;;;;;;;10.33;2.40;;;21.90;99.90;;;22.78;50.86;99861.59;6285233;22;20053;-88
2021/08/08 10:00:50;;;;;;;6.43;1.85;;;21.90;99.90;;;22.76;51.02;99858.44;6285374;22;20003;-85
2021/08/08 10:03:20;;;;;;;8.73;2.22;;;21.60;99.90;;;22.54;51.92;99861.97;6327963;22;20004;-85
2021/08/08 10:05:47;;;;;;;8.07;2.03;;;21.40;99.90;;;22.33;50.97;99870.44;6292967;22;20019;-90
2021/08/08 10:08:21;;;;;;;7.13;2.08;;;21.20;99.90;;;21.42;53.00;99866.34;6282585;22;20015;-89
2021/08/08 10:10:54;;;;;;;10.68;2.40;;;20.70;99.90;;;21.16;54.72;99876.84;6284681;22;20085;-90
2021/08/08 10:14:10;;;;;;;9.70;2.58;;;20.30;99.90;;;21.43;53.77;99877.28;6282014;22;20018;-91
2021/08/08 10:16:42;;;;;;;7.15;2.00;;;20.30;99.90;;;21.22;55.25;99874.28;6307866;22;20004;-90
2021/08/08 10:19:11;;;;;;;6.72;2.13;;;20.30;99.90;;;21.61;55.58;99881.66;6282470;22;20079;-90
2021/08/08 10:21:44;;;;;;;7.00;1.67;;;20.30;99.90;;;21.16;53.38;99879.69;6307537;22;20034;-88
2021/08/08 10:24:16;;;;;;;8.77;1.98;;;20.20;99.90;;;20.97;54.48;99889.09;6281001;22;20441;-90
2021/08/08 10:26:42;;;;;;;7.38;1.85;;;20.00;99.90;;;20.65;55.28;99878.59;6283185;22;20008;-90
2021/08/08 10:29:13;;;;;;;11.02;2.45;;;19.80;99.90;;;20.67;56.19;99884.66;6282622;22;20004;-89
2021/08/08 10:31:39;;;;;;;12.52;2.40;;;19.80;99.90;;;20.98;54.93;99887.88;6281535;22;20004;-89
2021/08/08 10:34:06;;;;;;;13.35;2.60;;;19.90;99.90;;;21.14;54.26;99882.19;6282270;22;20377;-92
2021/08/08 10:36:35;;;;;;;8.55;2.10;;;20.00;99.90;;;21.70;53.21;99893.94;6260177;22;20020;-88
2021/08/08 10:39:14;;;;;;;8.50;2.45;;;20.20;99.90;;;21.79;53.29;99896.91;6286574;22;20014;-88
2021/08/08 10:41:56;;;;;;;8.50;2.15;;;20.50;99.90;;;21.73;52.91;99901.56;6283932;22;20033;-91
2021/08/08 10:44:26;;;;;;;8.52;2.20;;;20.80;99.90;;;21.67;52.72;99896.88;6282509;22;20004;-91
2021/08/08 10:46:55;;;;;;;5.00;2.03;;;20.90;99.90;;;22.41;51.04;99908.78;6282171;22;20360;-90
2021/08/08 10:49:33;;;;;;;5.68;2.05;;;21.30;99.90;;;22.40;50.50;99910.84;6309957;22;20029;-89
2021/08/08 10:52:10;;;;;;;11.32;2.35;;;21.40;98.00;;;22.15;50.92;99904.34;6282947;22;20100;-89
2021/08/08 10:54:53;;;;;;;6.50;1.83;;;21.30;98.10;;;22.71;51.21;99913.88;6283383;22;20029;-91
2021/08/08 10:57:20;;;;;;;6.32;1.90;;;21.50;98.90;;;23.10;49.26;99906.81;6296412;22;20042;-88
2021/08/08 10:59:52;;;;;;;9.30;2.08;;;21.90;97.10;;;22.52;50.58;99907.16;6294865;22;20014;-88
2021/08/08 11:02:37;;;;;;;8.40;2.00;;;21.50;97.30;;;22.66;51.85;99905.94;6293905;22;20094;-90
2021/08/08 11:05:22;;;;;;;9.45;1.90;;;21.30;99.90;;;22.37;51.91;99897.53;6315966;22;20008;-91
2021/08/08 11:07:48;;;;;;;5.50;1.70;;;21.20;99.90;;;21.64;50.94;99912.78;6280452;22;20016;-92
2021/08/08 11:10:28;;;;;;;7.75;1.63;;;20.70;97.10;;;21.76;52.34;99920.56;6278781;22;20038;-88
2021/08/08 11:12:55;;;;;;;7.60;1.77;;;20.50;99.90;;;22.56;51.29;99922.09;6279816;22;20094;-90
2021/08/08 11:15:43;;;;;;;5.60;1.70;;;20.90;99.90;;;22.90;49.16;99918.50;6279665;22;20045;-90
2021/08/08 11:18:13;;;;;;;5.80;1.30;;;21.60;97.20;;;23.72;47.89;99926.97;6305359;22;20038;-88
2021/08/08 11:20:42;;;;;;;5.05;1.75;;;22.30;95.50;;;23.20;48.02;99917.03;6307010;22;20004;-89
2021/08/08 11:23:08;;;;;;;7.28;2.00;;;22.30;92.80;;;23.06;48.85;99931.78;6279801;22;20007;-90
2021/08/08 11:25:43;;;;;;;6.53;1.77;;;22.00;94.00;;;22.33;49.36;99936.66;6282521;22;20004;-89
2021/08/08 11:28:11;;;;;;;6.40;1.70;;;21.50;94.00;;;21.90;51.40;99928.66;6279991;22;20015;-90
2021/08/08 11:30:45;;;;;;;4.43;1.80;;;21.10;95.90;;;22.13;51.61;99929.59;6305756;22;20007;-90
2021/08/08 11:33:14;;;;;;;9.77;2.38;;;21.10;97.40;;;22.67;50.31;99932.34;6280913;22;20012;-89
2021/08/08 11:35:43;;;;;;;9.38;3.03;;;21.40;96.80;;;23.72;48.53;99929.81;6305002;22;20180;-90
2021/08/08 11:38:32;;;;;;;7.60;2.60;;;22.10;95.90;;;23.04;47.58;99940.00;6255044;22;20043;-89
2021/08/08 11:40:58;;;;;;;8.48;1.95;;;22.10;91.80;;;22.95;48.32;99931.38;6278117;22;20003;-89
2021/08/08 11:43:33;;;;;;;6.57;1.98;;;21.90;92.50;;;22.48;49.04;99934.16;6279441;22;20077;-89
2021/08/08 11:46:02;;;;;;;7.10;1.50;;;21.60;92.90;;;22.41;49.89;99923.78;6280908;22;20004;-90
2021/08/08 11:48:57;;;;;;;8.73;1.80;;;21.50;94.00;;;22.56;48.71;99939.16;6305287;22;20007;-87
2021/08/08 11:51:25;;;;;;;5.97;1.60;;;21.40;94.10;;;21.99;50.11;99943.00;6280435;22;20007;-90
2021/08/08 11:54:08;;;;;;;7.55;1.73;;;21.10;94.10;;;22.12;50.50;99950.78;6281228;22;20083;-90
2021/08/08 11:56:36;;;;;;;6.18;1.83;;;21.00;95.40;;;21.33;51.01;99946.56;6282535;22;20039;-90
2021/08/08 11:59:10;;;;;;;5.00;1.85;;;20.50;94.80;;;21.00;51.36;99950.66;6308629;22;20008;-91
2021/08/08 12:02:24;;;;;;;2.38;1.13;;;20.10;95.40;;;20.77;52.59;99956.56;6282332;22;20019;-91
2021/08/08 12:04:55;;;;;;;9.70;1.55;;;19.80;98.80;;;20.37;54.50;99955.91;6281072;22;20027;-89
2021/08/08 12:07:30;;;;;;;6.82;1.38;;;19.40;99.90;;;20.52;55.37;99956.38;6282759;22;20011;-91
2021/08/08 12:09:59;;;;;;;10.10;1.83;;;19.40;99.90;;;20.90;55.08;99954.59;6283103;22;20033;-89
2021/08/08 12:12:47;;;;;;;7.13;2.15;;;19.50;99.90;;;21.20;54.05;99951.38;6284608;22;20039;-88
2021/08/08 12:15:14;;;;;;;4.63;1.67;;;19.80;99.90;;;20.92;53.99;99958.59;6286032;22;20062;-89
2021/08/08 12:17:44;;;;;;;6.28;1.52;;;19.80;99.90;;;21.16;52.93;99964.88;6284090;22;20004;-87
2021/08/08 12:20:12;;;;;;;7.28;1.50;;;19.90;99.90;;;21.25;53.39;99958.56;6289028;22;20022;-89
2021/08/08 12:23:17;;;;;;;4.88;1.55;;;20.00;99.90;;;21.19;53.13;99963.97;6297058;22;20012;-89
2021/08/08 12:26:04;;;;;;;5.22;1.42;;;19.90;99.90;;;21.16;53.77;99964.88;6283919;22;20011;-91
2021/08/08 12:28:30;;;;;;;4.80;1.63;;;20.00;99.90;;;21.09;54.14;99961.41;6282745;22;20159;-90
2021/08/08 12:31:19;;;;;;;4.95;1.60;;;19.90;99.90;;;21.36;53.26;99964.72;6283937;22;20075;-90
2021/08/08 12:33:45;;;;;;;6.13;1.60;;;20.00;99.90;;;21.01;54.43;99974.97;6282896;22;20011;-90
2021/08/08 12:36:16;;;;;;;7.93;1.63;;;19.90;99.90;;;20.84;53.25;99968.50;6308313;22;20326;-91
2021/08/08 12:39:00;;;;;;;5.82;1.52;;;19.90;99.90;;;21.30;52.60;99967.34;6309592;22;20091;-90
2021/08/08 12:41:45;;;;;;;5.35;1.33;;;20.10;99.90;;;21.59;51.83;99975.06;6284445;22;20003;-89
2021/08/08 12:44:36;;;;;;;9.02;1.27;;;20.40;99.90;;;22.15;51.64;99973.41;6283462;22;20015;-88
2021/08/08 12:47:05;;;;;;;3.60;1.30;;;20.70;99.90;;;22.63;50.03;99980.81;6284217;22;20037;-93
2021/08/08 12:49:38;;;;;;;5.10;1.70;;;21.00;99.20;;;22.74;49.93;99981.28;6283526;22;20011;-88
2021/08/08 12:52:08;;;;;;;4.63;1.58;;;21.40;98.10;;;22.80;49.31;99978.66;6285356;22;20008;-90
2021/08/08 12:55:25;;;;;;;5.15;1.42;;;21.50;96.40;;;22.49;50.21;99969.88;6315323;22;20008;-89
2021/08/08 12:58:21;;;;;;;4.22;1.08;;;21.60;96.10;;;22.77;49.40;99973.88;6289890;22;20003;-90
2021/08/08 13:00:58;;;;;;;6.55;1.40;;;21.60;95.40;;;22.93;48.50;99959.50;6291836;22;20038;-89
2021/08/08 13:04:03;;;;;;;7.13;1.40;;;21.70;94.40;;;22.55;50.27;99956.69;6291576;22;20008;-89
2021/08/08 13:06:49;;;;;;;6.88;1.45;;;21.50;95.10;;;22.60;49.39;99959.75;6276115;22;20006;-87
2021/08/08 13:14:11;;;;;;;2.03;1.10;;;21.50;96.70;;;24.64;47.25;99956.28;6294883;22;20007;-91
2021/08/08 13:21:07;;;;;;;4.68;1.15;;;23.60;91.60;;;25.78;43.83;99954.25;6286255;22;20011;-88
2021/08/08 13:23:52;;;;;;;;;;;;;;;;;;;;;
2021/08/08 13:26:51;;;;;;;5.93;1.40;;;24.20;86.40;;;25.34;44.02;99945.16;6297942;22;20030;-88
2021/08/08 13:33:34;;;;;;;3.40;1.05;;;24.40;78.20;;;25.55;42.94;99949.97;6236371;22;20054;-89
2021/08/08 13:36:58;;;;;;;5.00;1.27;;;24.10;79.40;;;25.61;42.30;99956.63;6236854;22;20039;-90
2021/08/08 13:40:26;;;;;;;2.08;0.70;;;24.00;78.90;;;24.84;43.54;99946.53;6230754;23;20043;-89
2021/08/08 13:43:23;;;;;;;5.30;1.17;;;23.40;80.60;;;23.50;45.63;99947.69;6153930;22;20014;-87
2021/08/08 13:46:12;;;;;;;4.88;1.17;;;22.60;80.60;;;23.30;46.63;99943.56;6298618;22;20034;-88
2021/08/08 13:49:26;;;;;;;5.75;1.50;;;22.10;84.60;;;23.86;46.46;99958.56;6280221;22;20007;-90
2021/08/08 13:59:22;;;;;;;8.23;1.35;;;22.10;90.60;;;24.02;46.00;99971.81;6297704;22;20088;-89
2021/08/08 14:02:55;;;;;;;4.90;1.52;;;22.40;88.30;;;24.41;46.40;99958.91;6316175;22;20011;-92
2021/08/08 14:06:50;;;;;;;5.07;1.38;;;22.90;88.50;;;24.25;45.10;99964.84;6289830;22;20302;-91
2021/08/08 14:09:46;;;;;;;4.15;1.33;;;22.80;84.40;;;23.41;47.55;99956.19;6223991;22;20003;-92
2021/08/08 14:12:20;;;;;;;2.90;1.02;;;22.20;88.40;;;22.95;49.15;99969.19;6283247;22;20084;-92
2021/08/08 14:14:54;;;;;;;2.33;1.20;;;21.70;91.20;;;22.81;49.09;99975.38;6280120;22;20008;-90
2021/08/08 14:17:24;;;;;;;4.10;1.10;;;21.50;91.60;;;22.60;50.54;99981.75;6280387;22;20022;-90
2021/08/08 14:19:49;;;;;;;7.13;1.90;;;21.10;93.70;;;22.20;52.28;99998.44;6280651;22;20011;-91
2021/08/08 14:22:16;;;;;;;6.88;1.08;;;20.80;95.80;;;21.04;59.91;100025.19;6280381;22;20081;-92
2021/08/08 14:24:44;;;;;;;6.07;1.70;;;20.20;99.90;;;20.27;65.86;100022.19;6282612;22;20004;-89
2021/08/08 14:27:14;;;;;;;4.20;1.38;;;19.50;99.90;;;19.51;69.40;100026.19;6283133;22;20031;-91
2021/08/08 14:29:40;;;;;;;2.92;1.30;;;18.60;99.90;;;18.99;73.31;100015.34;6281878;22;20114;-88
2021/08/08 14:32:11;;;;;;;3.72;1.02;;;18.10;99.90;;;18.77;75.52;100014.13;6281693;22;20034;-87
2021/08/08 14:34:47;;;;;;;3.92;1.27;;;17.90;99.90;;;19.01;72.78;100006.44;6281096;22;20095;-89
2021/08/08 14:37:16;;;;;;;3.90;1.30;;;17.70;99.90;;;18.77;74.33;100025.44;6283030;22;20010;-89
2021/08/08 14:39:42;;;;;;;2.90;1.17;;;17.60;99.90;;;18.44;74.37;100024.28;6295967;22;20083;-86
2021/08/08 14:42:11;;;;;;;5.50;1.15;;;17.40;99.90;;;18.31;77.25;100023.25;6298730;22;20012;-92
2021/08/08 14:44:40;;;;;;;5.35;1.15;;;17.20;99.90;;;18.16;76.57;100039.63;6278266;22;20004;-91
2021/08/08 14:47:12;;;;;;;3.58;1.23;;;17.00;99.90;;;17.73;75.80;100050.66;6278805;22;20034;-93
2021/08/08 14:49:39;;;;;;;4.93;1.55;;;16.80;99.90;;;17.79;75.51;100048.16;6280441;22;20003;-90
2021/08/08 14:52:26;;;;;;;3.22;1.35;;;16.80;99.90;;;17.72;77.09;100048.25;6280249;22;20008;-90
2021/08/08 14:54:56;;;;;;;3.35;1.40;;;16.70;99.90;;;17.77;76.93;100044.97;6279356;22;20398;-89
2021/08/08 14:57:26;;;;;;;2.75;1.20;;;16.70;99.90;;;17.89;75.25;100052.88;6281017;22;20365;-90
2021/08/08 15:00:01;;;;;;;5.68;1.30;;;16.70;99.90;;;17.88;74.71;100054.91;6253718;22;20004;-92
2021/08/08 15:03:17;;;;;;;5.28;1.33;;;16.80;99.90;;;17.97;75.65;100054.41;6281016;22;20088;-92
2021/08/08 15:05:44;;;;;;;4.10;1.45;;;16.80;99.90;;;18.04;76.54;100053.53;6279541;22;20021;-91
2021/08/08 15:08:15;;;;;;;4.82;1.58;;;16.90;99.90;;;18.00;76.15;100056.41;6278913;22;20011;-93
2021/08/08 15:10:49;;;;;;;3.92;1.88;;;16.90;99.90;;;17.94;75.72;100057.28;6279486;22;20007;-91
2021/08/08 15:13:16;;;;;;;5.05;2.70;;;16.90;99.90;;;18.01;75.26;100057.19;6277006;22;20007;-91
2021/08/08 15:15:48;;;;;;;4.45;2.05;;;16.90;99.90;;;18.22;72.95;100062.56;6278526;22;20014;-92
2021/08/08 15:18:17;;;;;;;3.45;1.85;;;17.00;99.90;;;18.79;73.14;100062.56;6281510;22;20053;-93
2021/08/08 15:20:51;;;;;;;4.50;1.73;;;17.50;99.90;;;19.84;69.81;100071.22;6279775;22;20004;-91
2021/08/08 15:23:20;;;;;;;4.93;2.08;;;18.20;99.90;;;20.56;67.60;100074.19;6280202;22;20011;-91
2021/08/08 15:25:49;;;;;;;3.47;1.70;;;18.90;99.90;;;21.24;65.89;100082.72;6281483;22;20003;-91
2021/08/08 15:28:17;;;;;;;2.15;1.40;;;19.60;99.90;;;21.48;64.78;100069.91;6281223;22;20008;-87
2021/08/08 15:30:46;;;;;;;3.47;1.40;;;19.90;99.90;;;21.32;63.14;100083.34;6282138;22;20038;-90
2021/08/08 15:33:13;;;;;;;2.97;1.17;;;20.00;99.90;;;21.18;62.94;100078.81;6284423;22;20008;-88
2021/08/08 15:35:53;;;;;;;3.47;1.33;;;19.90;99.90;;;20.74;65.49;100071.75;6285281;22;20386;-90
2021/08/08 15:38:38;;;;;;;3.28;1.38;;;19.70;99.90;;;20.38;64.29;100068.13;6284584;22;20018;-89
2021/08/08 15:41:04;;;;;;;5.80;1.60;;;19.40;99.90;;;20.46;64.83;100067.53;6284536;22;20091;-90
2021/08/08 15:43:38;;;;;;;8.05;1.50;;;19.20;99.90;;;20.15;64.53;100065.34;6283093;22;20008;-91
2021/08/08 15:46:04;;;;;;;3.25;1.40;;;19.10;99.90;;;19.97;65.01;100071.41;6283053;22;20015;-90
2021/08/08 15:48:30;;;;;;;4.70;1.48;;;18.80;99.90;;;19.85;64.96;100069.19;6284515;22;20015;-90
2021/08/08 15:50:57;;;;;;;4.35;1.50;;;18.70;99.90;;;19.60;65.25;100080.22;6284599;22;20012;-90
2021/08/08 15:53:25;;;;;;;4.22;1.52;;;18.60;99.90;;;19.42;66.93;100087.00;6285018;22;20011;-93
2021/08/08 15:56:05;;;;;;;3.60;1.40;;;18.40;99.90;;;19.50;67.19;100073.53;6310071;22;20071;-89
2021/08/08 15:58:33;;;;;;;3.83;1.38;;;18.40;99.90;;;19.57;66.85;100081.09;6282371;22;20015;-89
2021/08/08 16:01:06;;;;;;;4.40;1.30;;;18.50;99.90;;;19.57;67.95;100079.06;6281377;22;20075;-91
2021/08/08 16:03:38;;;;;;;3.45;1.10;;;18.50;99.90;;;19.76;68.25;100069.78;6283535;22;20012;-90
2021/08/08 16:06:18;;;;;;;5.82;1.73;;;18.50;99.90;;;20.04;67.78;100076.09;6281771;22;20014;-90
2021/08/08 16:08:44;;;;;;;3.55;1.17;;;18.80;99.90;;;20.16;66.36;100075.47;6306889;22;20318;-90
2021/08/08 16:11:14;;;;;;;8.45;1.40;;;19.00;99.90;;;20.35;64.60;100081.16;6278619;22;20091;-90
2021/08/08 16:13:48;;;;;;;2.38;1.17;;;19.20;99.90;;;20.81;64.89;100096.31;6279673;22;20012;-90
2021/08/08 16:16:19;;;;;;;4.18;1.25;;;19.50;99.90;;;20.89;65.30;100080.72;6280304;22;20008;-90
2021/08/08 16:18:46;;;;;;;4.32;1.27;;;19.70;99.90;;;20.58;65.03;100083.06;6284486;22;20031;-89
2021/08/08 16:21:16;;;;;;;5.32;1.48;;;19.50;99.90;;;20.46;63.92;100093.06;6286598;22;20345;-90
2021/08/08 16:23:44;;;;;;;4.97;1.60;;;19.30;99.90;;;20.59;64.63;100092.38;6284126;22;20008;-89
2021/08/08 16:26:10;;;;;;;5.38;1.55;;;19.30;99.90;;;20.54;64.30;100099.38;6281890;22;20015;-88
2021/08/08 16:28:37;;;;;;;4.15;1.50;;;19.30;99.90;;;20.80;64.15;100094.75;6282225;22;20323;-91
2021/08/08 16:31:11;;;;;;;4.00;1.60;;;19.50;99.90;;;20.95;63.87;100099.63;6283337;22;20011;-90
2021/08/08 16:33:43;;;;;;;3.22;1.58;;;19.70;99.90;;;20.77;62.69;100107.78;6282187;22;20015;-86
2021/08/08 16:36:15;;;;;;;4.68;1.95;;;19.60;99.90;;;20.61;64.28;100106.94;6296255;22;20015;-88
2021/08/08 16:39:07;;;;;;;5.35;2.22;;;19.50;99.90;;;20.55;65.34;100098.13;6284044;22;20036;-89
2021/08/08 16:42:10;;;;;;;4.50;1.90;;;19.40;99.90;;;20.69;65.80;100111.19;6311368;22;20007;-87
2021/08/08 17:20:54;;;;;;;5.68;1.67;;;17.40;99.90;;;18.71;77.74;100151.59;6271487;22;20031;-89
2021/08/08 17:23:29;;;;;;;4.30;1.50;;;17.30;99.90;;;18.60;77.27;100156.59;6269012;22;19999;-91
2021/08/08 17:26:10;;;;;;;5.45;1.95;;;17.10;99.90;;;18.63;78.25;100152.91;6287784;22;20003;-90
2021/08/08 17:28:57;;;;;;;6.72;2.05;;;17.10;99.90;;;18.65;78.78;100171.09;6314516;22;20003;-91
2021/08/08 17:31:24;;;;;;;4.35;1.67;;;17.10;99.90;;;18.66;78.69;100171.88;6319930;22;20051;-88
2021/08/08 17:41:42;;;;;;;3.97;1.30;;;17.10;99.90;;;18.19;78.12;100142.56;6245327;23;20027;-90
2021/08/08 17:44:07;;;;;;;1.77;0.93;;;17.00;99.90;;;18.20;75.43;100158.28;6222906;22;20008;-90
2021/08/08 17:46:34;;;;;;;5.70;1.05;;;16.90;99.90;;;18.14;77.29;100160.75;6251572;22;20015;-90
2021/08/08 17:49:00;;;;;;;2.83;1.17;;;16.70;99.90;;;17.95;78.75;100152.91;6250283;22;20234;-91
2021/08/08 17:51:28;;;;;;;5.85;1.48;;;16.60;99.90;;;17.78;78.37;100168.03;6254095;22;20011;-88
2021/08/08 17:53:54;;;;;;;2.80;1.63;;;16.40;99.90;;;17.63;80.38;100169.38;6255721;22;20008;-89
2021/08/08 17:56:20;;;;;;;4.68;1.77;;;16.30;99.90;;;17.54;80.89;100183.94;6254557;22;20391;-89
2021/08/08 17:58:46;;;;;;;3.15;1.70;;;16.20;99.90;;;17.42;81.69;100178.81;6252621;22;20008;-92
2021/08/08 18:01:13;;;;;;;4.18;1.45;;;16.10;99.90;;;17.24;83.00;100175.34;6253447;22;20441;-90
2021/08/08 18:03:39;;;;;;;4.30;1.38;;;16.00;99.90;;;17.15;81.32;100174.97;6253370;22;20095;-89
2021/08/08 18:06:05;;;;;;;6.32;1.98;;;15.90;99.90;;;17.22;80.27;100178.56;6280299;22;20011;-91
2021/08/08 18:08:33;;;;;;;4.63;1.75;;;16.00;99.90;;;17.10;80.83;100181.88;6254042;22;20022;-87
2021/08/08 18:11:00;;;;;;;4.65;1.70;;;15.90;99.90;;;17.22;80.80;100184.19;6228112;22;20012;-88
2021/08/08 18:13:27;;;;;;;3.78;1.42;;;15.90;99.90;;;17.24;80.87;100193.03;6279649;22;20060;-90
2021/08/08 18:16:11;;;;;;;4.43;1.58;;;15.90;99.90;;;17.11;81.02;100191.97;6253457;22;20030;-89
2021/08/08 18:18:40;;;;;;;4.93;1.52;;;15.80;99.90;;;17.03;81.36;100193.19;6259397;22;20018;-88
2021/08/08 18:21:06;;;;;;;5.30;1.48;;;15.70;99.90;;;16.97;81.74;100203.31;6261071;22;20345;-88
2021/08/08 18:23:32;;;;;;;2.63;1.50;;;15.70;99.90;;;16.88;82.03;100191.69;6262249;22;20003;-89
2021/08/08 18:25:58;;;;;;;3.28;1.60;;;15.70;99.90;;;16.85;82.52;100198.97;6260431;22;20077;-89
2021/08/08 18:28:28;;;;;;;5.93;2.00;;;15.60;99.90;;;16.77;82.94;100197.38;6283058;22;20016;-88
2021/08/08 18:30:59;;;;;;;2.95;1.50;;;15.60;99.90;;;16.79;82.56;100205.44;6258738;22;20034;-88
2021/08/08 18:33:24;;;;;;;7.07;1.85;;;15.50;99.90;;;16.63;83.79;100208.72;6253400;22;20071;-89
2021/08/08 18:35:50;;;;;;;3.67;2.00;;;15.50;99.90;;;16.71;83.89;100201.03;6252603;22;20018;-89
2021/08/08 18:38:17;;;;;;;4.82;2.00;;;15.40;99.90;;;16.66;84.05;100210.72;6264757;22;20012;-88
2021/08/08 18:40:43;;;;;;;5.10;1.60;;;15.50;99.90;;;16.57;83.92;100210.38;6255258;22;20015;-90
2021/08/08 18:43:10;;;;;;;3.47;1.90;;;15.30;99.90;;;16.54;84.92;100218.81;6264157;22;20003;-89
2021/08/08 18:45:37;;;;;;;3.70;1.77;;;15.30;99.90;;;16.56;86.23;100220.06;6280645;22;20019;-88
2021/08/08 18:48:21;;;;;;;5.28;2.33;;;15.30;99.90;;;16.58;85.78;100214.00;6270060;22;20004;-87
2021/08/08 18:50:58;;;;;;;4.35;2.00;;;15.30;99.90;;;16.47;86.79;100222.44;6277519;22;20035;-90
2021/08/08 18:53:26;;;;;;;4.32;2.10;;;15.30;99.90;;;16.52;86.53;100229.69;6285005;22;20109;-89
2021/08/08 18:55:53;;;;;;;7.82;2.45;;;15.20;99.90;;;16.49;87.58;100222.06;6259894;22;20038;-88
2021/08/08 18:58:21;;;;;;;3.35;1.80;;;15.20;99.90;;;16.47;88.24;100227.31;6258925;22;20003;-88
2021/08/08 19:00:49;;;;;;;4.97;2.10;;;15.20;99.90;;;16.48;88.18;100240.16;6259906;22;20003;-89
2021/08/08 19:03:16;;;;;;;5.80;2.28;;;15.20;99.90;;;16.56;88.49;100239.78;6243296;22;20018;-91
2021/08/08 19:05:46;;;;;;;7.95;2.35;;;15.30;99.90;;;16.54;90.10;100247.78;6259204;22;20007;-89
2021/08/08 19:08:12;;;;;;;4.68;2.22;;;15.30;99.90;;;16.62;89.57;100260.72;6261200;22;20007;-88
2021/08/08 19:10:39;;;;;;;4.68;2.10;;;15.40;99.90;;;16.68;90.05;100258.25;6273166;22;20031;-88
2021/08/08 19:13:08;;;;;;;5.05;2.45;;;15.40;99.90;;;16.72;90.73;100270.34;6274377;22;20015;-91
2021/08/08 19:15:38;;;;;;;4.45;2.55;;;15.40;99.90;;;16.62;90.91;100271.97;6261152;22;20016;-90
2021/08/08 19:18:05;;;;;;;5.90;2.55;;;15.40;99.90;;;16.59;88.04;100272.00;6258161;22;20008;-88
2021/08/08 19:20:31;;;;;;;9.30;2.30;;;15.50;99.90;;;16.61;85.28;100275.19;6258023;22;20043;-89
2021/08/08 19:22:57;;;;;;;3.83;2.20;;;15.60;99.90;;;16.81;86.11;100279.16;6281176;22;20007;-91
2021/08/08 19:25:23;;;;;;;8.40;2.47;;;15.70;99.90;;;16.83;85.01;100285.19;6256373;22;20007;-92
2021/08/08 19:27:50;;;;;;;6.63;2.13;;;15.80;99.90;;;16.85;84.66;100288.41;6281047;22;20126;-91